Airfield :
LOGIN :

Register | Disclaimer

   EN    FR    IT 

 










Legend :    VFR   Marginal VFR   IFR   Intensive IFR   Very Intensive IFR
Visi :
Ceiling :
>= 8 km
>= 3000ft
5 to 8 km
1000 to 3000 ft
1500m to 5 km
500 to 1000 ft
800 to 1500m
200 to 500 ft
< 800m
< 200 ft
Symbols :   Thunderstorms  Fog  Heavy snow  Heavy precipitations  Wind > 20 kt
SIGMETs :     Misc.  Thunderstorms  Icing  Turbulence  Mountain Waves  Volcanic Ashes






- Airport Elevation : 247 ft
- IATA code : BLL


EKBI - Billund

CURRENT METAR :
  • 170050Z AUTO 17006KT 8000 BKN003/// 11/11 Q1008

EXPIRED METARs :
  • 170020Z AUTO 16005KT 9999 SCT003/// 11/11 Q1007
  • 162350Z AUTO 15006KT 9999 BKN003/// 11/11 Q1007
  • 162320Z AUTO 16005KT 9999 OVC003/// 11/11 Q1007
  • 162250Z AUTO 14005KT 9999 BKN003/// 11/11 Q1007
  • 162220Z AUTO 14004KT 9999 FEW004/// 11/10 Q1007
  • 162150Z AUTO 16005KT 130V190 9999 BKN005/// 12/11 Q1007
  • 162120Z AUTO 16006KT 9999 OVC005/// 12/11 Q1007
  • 162050Z AUTO 14007KT 9999 SCT006/// BKN054/// BKN068/// BKN110/// 12/11 Q1007
  • 162020Z AUTO 13004KT 100V160 9999 -RA FEW016/// BKN056/// 12/11 Q1007

TAF TAF EKBI
Valid from the 17 at 00:00 until the 18 at 00:00 UTC


162307Z 1700/1724 16006KT 9999 FEW004
TEMPO 1700/1702 2500 BR BKN004
PROB40 1702/1706 0200 FG VV002
TEMPO 1709/1716 SHRA SCT020CB
PROB40
TEMPO 1709/1716 3000 TSRA



MET'MAP, your aeronautical weather chart ! - Copyright ORBIFLY December 2007 - Disclaimer

ORBIFLY MET'MAP TEAM :

Programming & Development : Alexandra Zaïnal
Original concept : Baudouin d'Aumeries
Technical & hardware support : Manuel Goepfert
Assistance : Marc-Olivier Méhu




SOURCES & CREDITS :

   NOAA